createdAt,value
2022-10-29T00:01:50.486Z,1.70
2022-10-29T00:04:18.257Z,1.83
2022-10-29T00:06:46.112Z,1.87
2022-10-29T00:09:14.038Z,1.90
2022-10-29T00:11:41.776Z,1.85
2022-10-29T00:14:09.819Z,1.73
2022-10-29T00:16:40.662Z,1.95
2022-10-29T00:19:09.217Z,1.80
2022-10-29T00:21:38.060Z,1.60
2022-10-29T00:24:07.164Z,1.60
2022-10-29T00:26:34.917Z,1.90
2022-10-29T00:29:02.663Z,1.50
2022-10-29T00:31:30.966Z,1.40
2022-10-29T00:34:00.143Z,2.23
2022-10-29T00:36:29.590Z,1.92
2022-10-29T00:38:57.853Z,2.33
2022-10-29T00:41:27.729Z,1.97
2022-10-29T00:44:29.839Z,2.30
2022-10-29T00:47:03.525Z,1.20
2022-10-29T00:49:35.183Z,1.40
2022-10-29T00:52:04.576Z,1.42
2022-10-29T00:54:34.826Z,1.52
2022-10-29T00:57:08.224Z,1.57
2022-10-29T00:59:35.968Z,1.60
2022-10-29T01:02:03.815Z,1.67
2022-10-29T01:04:32.977Z,2.03
2022-10-29T01:07:01.193Z,1.77
2022-10-29T01:09:28.964Z,1.50
2022-10-29T01:12:11.747Z,1.43
2022-10-29T01:14:50.307Z,1.83
2022-10-29T01:17:28.445Z,1.40
2022-10-29T01:20:23.608Z,2.60
2022-10-29T01:23:06.570Z,1.75
2022-10-29T01:26:09.441Z,1.83
2022-10-29T01:28:55.232Z,1.23
2022-10-29T01:31:32.906Z,1.70
2022-10-29T01:34:06.731Z,1.35
2022-10-29T01:36:42.812Z,1.13
2022-10-29T01:39:20.401Z,1.77
2022-10-29T01:41:54.529Z,1.73
2022-10-29T01:44:34.387Z,1.73
2022-10-29T01:47:05.096Z,1.45
2022-10-29T01:49:38.533Z,1.70
2022-10-29T01:52:08.928Z,1.60
2022-10-29T01:54:41.093Z,1.80
2022-10-29T01:57:28.497Z,2.10
2022-10-29T01:59:58.905Z,2.03
2022-10-29T02:02:40.574Z,1.60
2022-10-29T02:05:19.759Z,1.50
2022-10-29T02:07:52.438Z,2.67
2022-10-29T02:10:28.905Z,1.70
2022-10-29T02:12:58.707Z,2.00
2022-10-29T02:15:30.482Z,1.90
2022-10-29T02:18:02.159Z,2.37
2022-10-29T02:20:30.421Z,1.50
2022-10-29T02:22:58.407Z,1.93
2022-10-29T02:25:26.330Z,2.73
2022-10-29T02:27:54.613Z,1.80
2022-10-29T02:30:23.649Z,1.50
2022-10-29T02:32:51.420Z,2.00
2022-10-29T02:35:20.478Z,1.23
2022-10-29T02:37:48.661Z,2.43
2022-10-29T02:40:16.598Z,2.60
2022-10-29T02:42:44.311Z,1.63
2022-10-29T02:45:12.135Z,2.20
2022-10-29T02:47:40.098Z,2.07
2022-10-29T02:50:09.252Z,1.90
2022-10-29T02:52:38.324Z,1.40
2022-10-29T02:55:06.879Z,2.00
2022-10-29T02:57:34.568Z,1.97
2022-10-29T03:00:02.324Z,1.37
2022-10-29T03:02:30.152Z,1.80
2022-10-29T03:04:58.481Z,2.00
2022-10-29T03:07:26.212Z,2.27
2022-10-29T03:09:55.338Z,2.10
2022-10-29T03:12:23.200Z,2.10
2022-10-29T03:14:50.881Z,1.93
2022-10-29T03:17:18.596Z,1.50
2022-10-29T03:19:46.262Z,1.57
2022-10-29T03:22:13.979Z,1.53
2022-10-29T03:24:41.860Z,1.60
2022-10-29T03:27:11.227Z,2.53
2022-10-29T03:29:39.042Z,2.10
2022-10-29T03:32:07.187Z,1.50
2022-10-29T03:34:34.864Z,1.40
2022-10-29T03:37:02.566Z,1.83
2022-10-29T03:39:30.331Z,1.80
2022-10-29T03:41:58.066Z,1.93
2022-10-29T03:44:27.188Z,1.83
2022-10-29T03:46:54.933Z,1.70
2022-10-29T03:49:22.853Z,1.90
2022-10-29T03:51:50.545Z,2.47
2022-10-29T03:54:18.228Z,1.70
2022-10-29T03:56:45.962Z,1.80
2022-10-29T03:59:13.667Z,1.63
2022-10-29T04:01:42.879Z,1.70
2022-10-29T04:04:10.939Z,1.70
2022-10-29T04:06:38.698Z,1.57
2022-10-29T04:09:06.571Z,1.37
2022-10-29T04:11:34.298Z,1.70
2022-10-29T04:14:02.040Z,1.50
2022-10-29T04:16:29.838Z,1.83
2022-10-29T04:18:59.099Z,1.77
2022-10-29T04:29:50.517Z,1.50
2022-10-29T04:32:18.287Z,1.93
2022-10-29T04:34:47.331Z,1.67
2022-10-29T04:37:15.036Z,1.77
2022-10-29T04:39:42.740Z,2.07
2022-10-29T04:42:10.609Z,1.83
2022-10-29T04:44:38.486Z,1.53
2022-10-29T04:47:06.181Z,2.07
2022-10-29T04:49:33.943Z,2.97
2022-10-29T04:52:03.017Z,2.33
2022-10-29T04:54:30.834Z,2.00
2022-10-29T04:56:58.601Z,1.90
2022-10-29T04:59:26.313Z,2.03
2022-10-29T05:01:54.035Z,1.70
2022-10-29T05:04:21.748Z,2.23
2022-10-29T05:06:49.634Z,2.50
2022-10-29T05:09:18.708Z,2.20
2022-10-29T05:11:46.432Z,1.77
2022-10-29T05:14:14.280Z,1.93
2022-10-29T05:16:42.073Z,2.20
2022-10-29T05:19:09.791Z,2.43
2022-10-29T05:21:37.585Z,2.00
2022-10-29T05:24:05.523Z,1.93
2022-10-29T05:26:34.579Z,1.93
2022-10-29T05:29:02.482Z,1.77
2022-10-29T05:31:30.224Z,1.83
2022-10-29T05:33:58.146Z,1.80
2022-10-29T05:36:25.885Z,1.97
2022-10-29T05:38:53.631Z,1.80
2022-10-29T05:41:21.348Z,1.93
2022-10-29T05:43:51.340Z,1.90
2022-10-29T05:46:19.110Z,2.13
2022-10-29T05:48:46.819Z,2.30
2022-10-29T05:51:14.558Z,1.73
2022-10-29T05:53:42.322Z,2.33
2022-10-29T05:56:10.145Z,1.97
2022-10-29T05:58:37.950Z,1.70
2022-10-29T06:01:08.843Z,1.67
2022-10-29T06:03:36.965Z,1.77
2022-10-29T06:06:04.887Z,1.50
2022-10-29T06:08:32.657Z,1.87
2022-10-29T06:11:02.717Z,1.87
2022-10-29T06:13:30.657Z,1.70
2022-10-29T06:15:59.917Z,2.43
2022-10-29T06:18:29.205Z,1.50
2022-10-29T06:20:58.932Z,2.13
2022-10-29T06:23:26.685Z,1.80
2022-10-29T06:25:54.559Z,1.77
2022-10-29T06:28:22.256Z,1.73
2022-10-29T06:30:51.168Z,2.10
2022-10-29T06:33:19.682Z,1.93
2022-10-29T06:35:49.152Z,1.70
2022-10-29T06:38:17.063Z,1.77
2022-10-29T06:40:51.930Z,1.67
2022-10-29T06:43:19.695Z,1.90
2022-10-29T06:45:47.407Z,2.53
2022-10-29T06:48:20.648Z,1.70
2022-10-29T06:50:51.073Z,1.80
2022-10-29T06:53:19.045Z,2.37
2022-10-29T06:55:46.824Z,2.70
2022-10-29T06:58:16.715Z,2.03
2022-10-29T07:00:45.709Z,2.93
2022-10-29T07:03:14.539Z,2.20
2022-10-29T07:05:42.299Z,2.40
2022-10-29T07:08:11.650Z,2.80
2022-10-29T07:10:40.313Z,3.00
2022-10-29T07:13:08.118Z,2.77
2022-10-29T07:15:35.848Z,2.70
2022-10-29T07:18:05.413Z,2.40
2022-10-29T07:20:34.656Z,3.20
2022-10-29T07:23:02.627Z,2.50
2022-10-29T07:25:32.598Z,3.40
2022-10-29T07:28:04.296Z,3.07
2022-10-29T07:30:32.336Z,3.47
2022-10-29T07:33:00.074Z,3.33
2022-10-29T07:35:27.811Z,3.43
2022-10-29T07:38:03.661Z,4.17
2022-10-29T07:40:38.249Z,4.07
2022-10-29T07:43:06.002Z,3.80
2022-10-29T07:45:34.239Z,3.67
2022-10-29T07:48:03.421Z,3.80
2022-10-29T07:50:32.345Z,3.60
2022-10-29T07:53:00.328Z,4.40
2022-10-29T07:58:03.365Z,3.43
2022-10-29T08:00:31.988Z,3.47
2022-10-29T08:03:00.238Z,3.53
2022-10-29T08:05:29.675Z,3.90
2022-10-29T08:07:58.437Z,3.93
2022-10-29T08:10:27.346Z,3.60
2022-10-29T08:12:57.491Z,4.70
2022-10-29T08:15:27.949Z,3.73
2022-10-29T08:17:56.028Z,3.60
2022-10-29T08:20:27.152Z,3.97
2022-10-29T08:22:55.580Z,3.83
2022-10-29T08:25:23.835Z,3.57
2022-10-29T08:28:00.349Z,3.47
2022-10-29T08:30:29.725Z,3.07
2022-10-29T08:32:58.360Z,3.73
2022-10-29T08:35:26.997Z,3.43
2022-10-29T08:37:55.369Z,2.93
2022-10-29T08:40:31.068Z,3.97
2022-10-29T08:43:23.260Z,3.20
2022-10-29T08:45:54.716Z,3.53
2022-10-29T08:48:37.069Z,3.63
2022-10-29T08:51:10.941Z,2.73
2022-10-29T08:53:43.187Z,3.00
2022-10-29T08:56:16.059Z,3.07
2022-10-29T08:58:51.696Z,3.20
2022-10-29T09:01:23.660Z,3.43
2022-10-29T09:03:51.848Z,3.27
2022-10-29T09:06:28.038Z,3.60
2022-10-29T09:09:20.200Z,3.33
2022-10-29T09:12:08.187Z,3.20
2022-10-29T09:15:00.188Z,3.03
2022-10-29T09:17:37.739Z,3.53
2022-10-29T09:20:23.172Z,2.35
2022-10-29T09:23:03.482Z,3.30
2022-10-29T09:25:34.369Z,3.53
2022-10-29T09:28:16.244Z,3.30
2022-10-29T09:30:50.562Z,2.70
2022-10-29T09:33:22.760Z,2.97
2022-10-29T09:35:55.841Z,2.72
2022-10-29T09:38:27.750Z,2.70
2022-10-29T09:40:59.149Z,2.73
2022-10-29T09:43:38.699Z,2.83
2022-10-29T09:46:17.295Z,2.40
2022-10-29T09:48:58.182Z,3.15
2022-10-29T09:51:35.857Z,2.40
2022-10-29T09:54:05.054Z,2.33
2022-10-29T09:56:33.029Z,2.80
2022-10-29T09:59:11.417Z,2.40
2022-10-29T10:01:39.498Z,1.90
2022-10-29T10:04:20.193Z,1.52
2022-10-29T10:07:06.555Z,1.98
2022-10-29T10:09:53.557Z,2.40
2022-10-29T10:12:24.877Z,2.00
2022-10-29T10:15:07.955Z,2.50
2022-10-29T10:18:01.105Z,2.70
2022-10-29T10:20:50.152Z,3.03
2022-10-29T10:23:23.347Z,2.08
2022-10-29T10:25:52.303Z,1.92
2022-10-29T10:28:22.369Z,2.25
2022-10-29T10:31:08.938Z,2.30
2022-10-29T10:33:44.878Z,2.53
2022-10-29T10:36:14.024Z,2.53
2022-10-29T10:38:45.880Z,3.45
2022-10-29T10:41:15.955Z,1.85
2022-10-29T10:43:45.248Z,2.28
2022-10-29T10:46:18.965Z,1.80
2022-10-29T10:48:57.232Z,1.92
2022-10-29T10:51:30.859Z,2.00
2022-10-29T10:53:59.421Z,1.83
2022-10-29T10:56:27.364Z,1.90
2022-10-29T10:59:02.338Z,1.67
2022-10-29T11:01:37.114Z,1.40
2022-10-29T11:04:14.094Z,1.30
2022-10-29T11:06:47.721Z,1.58
2022-10-29T11:09:23.590Z,1.52
2022-10-29T11:11:58.913Z,1.55
2022-10-29T11:14:32.583Z,1.45
2022-10-29T11:17:03.626Z,1.88
2022-10-29T11:19:36.956Z,1.60
2022-10-29T11:22:22.924Z,1.73
2022-10-29T11:24:58.337Z,1.60
2022-10-29T11:27:35.394Z,1.75
2022-10-29T11:30:06.559Z,1.70
2022-10-29T11:32:47.262Z,1.75
2022-10-29T11:35:18.670Z,1.27
2022-10-29T11:37:54.336Z,1.50
2022-10-29T11:40:24.731Z,1.55
2022-10-29T11:42:52.459Z,1.77
2022-10-29T11:45:27.854Z,1.52
2022-10-29T11:48:08.920Z,1.98
2022-10-29T11:50:46.952Z,1.85
2022-10-29T11:53:32.593Z,1.92
2022-10-29T11:56:09.653Z,2.08
2022-10-29T11:58:46.060Z,2.30
2022-10-29T12:01:23.060Z,1.95
2022-10-29T12:04:12.505Z,1.60
2022-10-29T12:06:46.155Z,1.60
2022-10-29T12:09:36.608Z,2.78
2022-10-29T12:12:12.793Z,1.70
2022-10-29T12:14:49.003Z,1.40
2022-10-29T12:17:22.712Z,1.60
2022-10-29T12:19:58.448Z,2.05
2022-10-29T12:22:38.395Z,1.75
2022-10-29T12:25:22.474Z,2.13
2022-10-29T12:28:00.499Z,1.75
2022-10-29T12:30:31.309Z,2.30
2022-10-29T12:33:06.256Z,1.60
2022-10-29T12:35:42.303Z,2.00
2022-10-29T12:38:25.797Z,1.60
2022-10-29T12:41:01.759Z,1.35
2022-10-29T12:43:32.306Z,1.40
2022-10-29T12:46:19.482Z,1.40
2022-10-29T12:48:54.857Z,1.70
2022-10-29T12:51:31.270Z,1.45
2022-10-29T12:54:21.189Z,1.40
2022-10-29T12:56:52.670Z,1.23
2022-10-29T12:59:32.041Z,2.28
2022-10-29T13:02:33.785Z,1.35
2022-10-29T13:05:20.677Z,1.00
2022-10-29T13:08:12.034Z,2.05
2022-10-29T13:10:55.116Z,1.38
2022-10-29T13:13:55.365Z,1.10
2022-10-29T13:16:29.471Z,1.33
2022-10-29T13:19:08.007Z,1.52
2022-10-29T13:21:58.844Z,1.48
2022-10-29T13:24:27.573Z,1.77
2022-10-29T13:27:01.407Z,1.27
2022-10-29T13:29:48.618Z,1.73
2022-10-29T13:32:36.629Z,1.65
2022-10-29T13:35:06.939Z,1.70
2022-10-29T13:37:51.279Z,1.30
2022-10-29T13:41:02.033Z,1.58
2022-10-29T13:43:31.261Z,1.33
2022-10-29T13:46:45.736Z,1.13
2022-10-29T13:49:19.868Z,1.30
2022-10-29T13:51:57.909Z,1.30
2022-10-29T13:54:31.284Z,1.70
2022-10-29T13:57:01.552Z,1.52
2022-10-29T13:59:40.995Z,1.85
2022-10-29T14:02:27.517Z,1.30
2022-10-29T14:05:00.482Z,1.95
2022-10-29T14:07:34.786Z,1.17
2022-10-29T14:10:09.289Z,1.33
2022-10-29T14:12:38.229Z,1.40
2022-10-29T14:15:09.436Z,1.33
2022-10-29T14:17:39.749Z,1.35
2022-10-29T14:20:24.619Z,1.58
2022-10-29T14:22:52.390Z,1.60
2022-10-29T14:25:44.202Z,1.25
2022-10-29T14:28:18.084Z,1.23
2022-10-29T14:30:47.056Z,1.60
2022-10-29T14:33:26.172Z,1.77
2022-10-29T14:35:56.290Z,1.50
2022-10-29T14:38:31.059Z,1.30
2022-10-29T14:40:58.817Z,1.60
2022-10-29T14:43:28.827Z,2.00
2022-10-29T14:45:58.227Z,1.80
2022-10-29T14:48:27.287Z,1.70
2022-10-29T14:50:56.591Z,1.60
2022-10-29T14:53:30.668Z,3.88
2022-10-29T14:55:59.989Z,1.42
2022-10-29T14:58:29.264Z,1.88
2022-10-29T15:00:59.571Z,2.20
2022-10-29T15:03:33.028Z,5.85
2022-10-29T15:06:14.552Z,7.63
2022-10-29T15:08:43.727Z,7.40
2022-10-29T15:11:32.602Z,6.57
2022-10-29T15:14:00.485Z,3.03
2022-10-29T15:16:29.290Z,3.80
2022-10-29T15:18:59.668Z,1.98
2022-10-29T15:21:30.346Z,3.30
2022-10-29T15:24:03.168Z,2.78
2022-10-29T15:26:31.583Z,2.20
2022-10-29T15:28:59.523Z,3.33
2022-10-29T15:31:32.238Z,4.20
2022-10-29T15:34:09.345Z,2.90
2022-10-29T15:36:47.944Z,3.23
2022-10-29T15:39:27.604Z,3.70
2022-10-29T15:41:57.592Z,4.07
2022-10-29T15:44:39.348Z,2.67
2022-10-29T15:47:28.590Z,3.92
2022-10-29T15:49:57.660Z,3.50
2022-10-29T15:52:28.596Z,2.80
2022-10-29T15:54:56.295Z,2.50
2022-10-29T15:57:24.077Z,2.28
2022-10-29T15:59:55.253Z,2.30
2022-10-29T16:02:23.161Z,2.00
2022-10-29T16:04:51.018Z,2.35
2022-10-29T16:07:20.233Z,2.00
2022-10-29T16:09:50.673Z,2.53
2022-10-29T16:12:18.728Z,2.30
2022-10-29T16:14:46.750Z,2.10
2022-10-29T16:17:16.375Z,2.63
2022-10-29T16:19:44.306Z,2.38
2022-10-29T16:22:17.796Z,2.47
2022-10-29T16:24:47.051Z,3.17
2022-10-29T16:27:17.025Z,2.33
2022-10-29T16:29:46.967Z,2.20
2022-10-29T16:32:16.192Z,2.30
2022-10-29T16:34:44.097Z,2.90
2022-10-29T16:37:14.376Z,2.97
2022-10-29T16:39:42.397Z,3.37
2022-10-29T16:42:26.788Z,3.00
2022-10-29T16:44:54.584Z,3.33
2022-10-29T16:47:22.467Z,2.72
2022-10-29T16:49:50.229Z,2.65
2022-10-29T16:52:22.326Z,2.72
2022-10-29T16:54:50.909Z,2.80
2022-10-29T16:57:20.015Z,3.55
2022-10-29T16:59:47.969Z,2.90
2022-10-29T17:02:15.780Z,3.45
2022-10-29T17:04:43.701Z,3.17
2022-10-29T17:07:11.453Z,2.87
2022-10-29T17:09:40.726Z,3.33
2022-10-29T17:12:10.626Z,3.03
2022-10-29T17:14:39.821Z,3.38
2022-10-29T17:17:07.545Z,3.40
2022-10-29T17:19:35.305Z,3.33
2022-10-29T17:22:04.187Z,3.53
2022-10-29T17:24:32.207Z,4.63
2022-10-29T17:27:00.456Z,4.10
2022-10-29T17:29:32.468Z,3.60
2022-10-29T17:34:37.561Z,4.77
2022-10-29T17:37:06.321Z,4.03
2022-10-29T17:39:34.346Z,3.37
2022-10-29T17:42:02.504Z,3.20
2022-10-29T17:44:31.967Z,3.43
2022-10-29T17:46:59.681Z,3.40
2022-10-29T17:49:29.304Z,3.33
2022-10-29T17:51:57.174Z,2.70
2022-10-29T17:54:25.456Z,3.00
2022-10-29T17:56:53.141Z,3.40
2022-10-29T17:59:20.963Z,3.37
2022-10-29T18:01:48.825Z,4.00
2022-10-29T18:04:16.975Z,3.43
2022-10-29T18:06:46.173Z,3.15
2022-10-29T18:09:17.132Z,3.60
2022-10-29T18:11:50.216Z,2.80
2022-10-29T18:14:17.906Z,3.95
2022-10-29T18:16:46.348Z,4.13
2022-10-29T18:19:14.112Z,3.65
2022-10-29T18:21:42.049Z,3.87
2022-10-29T18:24:11.713Z,3.30
2022-10-29T18:26:39.548Z,3.53
2022-10-29T18:29:09.815Z,3.83
2022-10-29T18:31:40.060Z,3.87
2022-10-29T18:34:09.015Z,4.30
2022-10-29T18:36:37.316Z,3.77
2022-10-29T18:39:06.200Z,3.67
2022-10-29T18:41:37.013Z,3.37
2022-10-29T18:44:04.986Z,3.43
2022-10-29T18:46:33.946Z,3.45
2022-10-29T18:49:02.097Z,3.10
2022-10-29T18:51:31.744Z,3.43
2022-10-29T18:54:00.241Z,3.57
2022-10-29T18:56:30.133Z,3.40
2022-10-29T18:59:00.474Z,3.60
2022-10-29T19:01:31.571Z,3.13
2022-10-29T19:04:01.912Z,3.83
2022-10-29T19:06:31.468Z,3.83
2022-10-29T19:09:00.952Z,3.10
2022-10-29T19:11:29.405Z,3.20
2022-10-29T19:14:01.520Z,3.13
2022-10-29T19:16:30.858Z,3.13
2022-10-29T19:19:00.623Z,3.13
2022-10-29T19:21:28.456Z,3.70
2022-10-29T19:23:57.000Z,3.40
2022-10-29T19:26:26.148Z,3.67
2022-10-29T19:28:54.417Z,3.63
2022-10-29T19:31:26.250Z,4.43
2022-10-29T19:33:55.855Z,3.30
2022-10-29T19:36:24.932Z,3.80
2022-10-29T19:38:52.801Z,3.27
2022-10-29T19:41:20.690Z,3.60
2022-10-29T19:43:49.141Z,3.83
2022-10-29T19:46:18.926Z,3.40
2022-10-29T19:48:51.748Z,4.23
2022-10-29T19:51:19.896Z,3.60
2022-10-29T19:53:48.832Z,2.87
2022-10-29T19:56:17.720Z,3.60
2022-10-29T19:58:45.896Z,3.57
2022-10-29T20:01:17.269Z,3.60
2022-10-29T20:03:46.056Z,3.47
2022-10-29T20:06:16.660Z,3.30
2022-10-29T20:08:45.008Z,3.40
2022-10-29T20:11:12.851Z,3.20
2022-10-29T20:13:42.020Z,3.43
2022-10-29T20:16:11.243Z,3.20
2022-10-29T20:18:39.488Z,3.60
2022-10-29T20:21:08.673Z,3.70
2022-10-29T20:23:40.350Z,3.23
2022-10-29T20:26:08.829Z,3.97
2022-10-29T20:28:39.740Z,3.30
2022-10-29T20:31:13.104Z,4.13
2022-10-29T20:33:40.874Z,3.73
2022-10-29T20:36:09.529Z,3.33
2022-10-29T20:38:38.662Z,3.67
2022-10-29T20:41:06.510Z,3.77
2022-10-29T20:43:34.633Z,3.40
2022-10-29T20:46:04.910Z,4.07
2022-10-29T20:48:33.047Z,4.10
2022-10-29T20:51:00.714Z,3.57
2022-10-29T20:53:30.508Z,3.60
2022-10-29T20:56:01.667Z,4.00
2022-10-29T20:58:29.428Z,3.77
2022-10-29T21:01:05.050Z,3.50
2022-10-29T21:03:34.113Z,4.33
2022-10-29T21:06:02.912Z,4.13
2022-10-29T21:08:31.553Z,3.90
2022-10-29T21:11:01.367Z,4.03
2022-10-29T21:13:29.823Z,3.20
2022-10-29T21:16:05.289Z,2.97
2022-10-29T21:18:37.135Z,3.90
2022-10-29T21:21:05.431Z,4.00
2022-10-29T21:23:33.793Z,4.33
2022-10-29T21:26:02.832Z,3.10
2022-10-29T21:28:30.983Z,3.77
2022-10-29T21:30:58.678Z,3.43
2022-10-29T21:33:26.619Z,4.13
2022-10-29T21:35:55.576Z,3.50
2022-10-29T21:38:24.248Z,3.70
2022-10-29T21:40:52.321Z,3.67
2022-10-29T21:43:22.209Z,3.43
2022-10-29T21:45:51.412Z,3.67
2022-10-29T21:48:19.691Z,3.73
2022-10-29T21:50:47.656Z,3.53
2022-10-29T21:55:49.297Z,4.33
2022-10-29T21:58:17.020Z,3.60
2022-10-29T22:00:46.181Z,4.27
2022-10-29T22:03:13.887Z,4.20
2022-10-29T22:05:41.573Z,4.07
2022-10-29T22:08:09.385Z,3.97
2022-10-29T22:10:37.153Z,3.63
2022-10-29T22:13:05.629Z,3.83
2022-10-29T22:15:33.899Z,4.37
2022-10-29T22:18:03.006Z,3.43
2022-10-29T22:20:30.706Z,3.23
2022-10-29T22:22:58.863Z,3.87
2022-10-29T22:25:26.748Z,3.20
2022-10-29T22:27:56.259Z,3.37
2022-10-29T22:30:24.153Z,3.20
2022-10-29T22:32:53.903Z,4.03
2022-10-29T22:35:22.976Z,3.43
2022-10-29T22:37:50.919Z,3.50
2022-10-29T22:40:18.753Z,3.87
2022-10-29T22:42:46.508Z,3.30
2022-10-29T22:45:14.341Z,3.10
2022-10-29T22:47:42.054Z,3.17
2022-10-29T22:50:10.367Z,3.77
2022-10-29T22:55:08.944Z,3.73
2022-10-29T22:57:36.607Z,2.90
2022-10-29T23:00:05.137Z,3.57
2022-10-29T23:02:32.929Z,4.10
2022-10-29T23:05:00.712Z,3.00
2022-10-29T23:07:28.505Z,3.63
2022-10-29T23:09:57.625Z,3.87
2022-10-29T23:12:25.379Z,3.47
2022-10-29T23:14:53.181Z,2.63
2022-10-29T23:17:20.892Z,3.63
2022-10-29T23:19:48.607Z,3.20
2022-10-29T23:22:16.443Z,3.20
2022-10-29T23:24:44.321Z,2.97
2022-10-29T23:27:13.345Z,2.97
2022-10-29T23:29:41.183Z,3.67
2022-10-29T23:32:08.892Z,3.00
2022-10-29T23:34:36.588Z,3.47
2022-10-29T23:37:07.179Z,2.87
2022-10-29T23:39:37.663Z,3.50
2022-10-29T23:42:05.583Z,3.33
2022-10-29T23:44:34.559Z,2.80
2022-10-29T23:47:02.258Z,3.30
2022-10-29T23:49:29.941Z,3.03
2022-10-29T23:51:57.683Z,2.63
2022-10-29T23:54:25.348Z,3.00
2022-10-29T23:56:53.060Z,3.10
2022-10-29T23:59:20.739Z,2.90
